Time;durP1;ratioP1;P1;durP2;ratioP2;P2;SDS_P1;SDS_P2;PMS_P1;PMS_P2;Temp;Humidity;BMP_temperature;BMP_pressure;BME280_temperature;BME280_humidity;BME280_pressure;Samples;Min_cycle;Max_cycle;Signal;HPM_P1;HPM_P2
2022/07/06 00:01:36;;;;;;;13.75;8.85;;;;;;;20.80;77.46;93542.25;5029080;28;20525;-41
2022/07/06 00:04:02;;;;;;;10.30;8.90;;;;;;;20.79;77.41;93531.63;5027618;28;20438;-42
2022/07/06 00:06:27;;;;;;;11.60;8.48;;;;;;;20.84;77.80;93527.69;5028144;28;20026;-42
2022/07/06 00:08:53;;;;;;;12.15;8.77;;;;;;;20.89;77.43;93521.72;5029248;28;20037;-41
2022/07/06 00:11:18;;;;;;;14.35;8.93;;;;;;;20.90;77.14;93511.94;5029317;28;20852;-41
2022/07/06 00:13:44;;;;;;;18.55;9.65;;;;;;;20.75;78.07;93503.31;5028819;28;20029;-42
2022/07/06 00:16:09;;;;;;;23.08;9.73;;;;;;;20.48;78.91;93497.56;5028607;28;20033;-42
2022/07/06 00:18:35;;;;;;;12.57;9.85;;;;;;;20.58;79.02;93484.09;5028741;28;20033;-42
2022/07/06 00:21:00;;;;;;;10.60;9.25;;;;;;;20.72;78.38;93463.22;5029142;28;20031;-43
2022/07/06 00:23:26;;;;;;;11.90;9.75;;;;;;;20.76;78.83;93459.91;5028586;28;20048;-41
2022/07/06 00:25:51;;;;;;;12.25;10.82;;;;;;;20.57;79.47;93432.16;5028572;28;20041;-41
2022/07/06 00:28:17;;;;;;;11.43;9.85;;;;;;;20.48;79.29;93438.66;5028403;28;20739;-41
2022/07/06 00:30:42;;;;;;;14.98;11.38;;;;;;;20.39;80.42;93424.19;5029065;28;20025;-41
2022/07/06 00:33:08;;;;;;;11.70;9.93;;;;;;;20.35;80.81;93417.59;5028701;28;20087;-40
2022/07/06 00:35:34;;;;;;;14.60;11.90;;;;;;;20.52;80.50;93422.06;5028752;28;20068;-40
2022/07/06 00:37:59;;;;;;;11.98;10.77;;;;;;;20.39;79.83;93396.13;5028519;28;20312;-41
2022/07/06 00:40:25;;;;;;;13.68;10.07;;;;;;;20.61;79.52;93409.94;5028860;28;20112;-41
2022/07/06 00:42:50;;;;;;;10.55;9.35;;;;;;;20.66;79.41;93406.75;5028467;28;20123;-42
2022/07/06 00:45:17;;;;;;;16.85;9.77;;;;;;;20.69;78.22;93394.31;5028781;28;20407;-41
2022/07/06 00:47:43;;;;;;;10.48;9.43;;;;;;;20.69;77.12;93383.06;5028855;28;20033;-41
2022/07/06 00:50:22;;;;;;;10.75;8.38;;;;;;;20.57;77.19;93371.19;5028786;28;20672;-41
2022/07/06 00:52:49;;;;;;;15.10;9.65;;;;;;;20.24;78.45;93363.03;5028745;28;20053;-41
2022/07/06 00:55:16;;;;;;;11.18;9.98;;;;;;;20.13;79.80;93366.56;5028876;28;20053;-40
2022/07/06 00:57:42;;;;;;;11.55;10.35;;;;;;;20.11;81.38;93362.91;5028742;28;20029;-41
2022/07/06 01:00:13;;;;;;;85.13;13.80;;;;;;;20.21;81.15;93366.31;5028358;28;20473;-39
2022/07/06 01:02:38;;;;;;;21.67;9.63;;;;;;;20.24;80.85;93367.91;5032629;28;20049;-39
2022/07/06 01:05:05;;;;;;;24.60;10.43;;;;;;;20.31;80.71;93372.50;5032513;28;20502;-40
2022/07/06 01:07:31;;;;;;;11.40;9.27;;;;;;;20.28;80.75;93366.06;5031813;28;20534;-39
2022/07/06 01:09:57;;;;;;;15.30;9.27;;;;;;;20.16;81.11;93359.72;5032077;28;20067;-39
2022/07/06 01:12:23;;;;;;;13.10;7.88;;;;;;;20.28;79.99;93349.25;5032037;28;20033;-40
2022/07/06 01:14:49;;;;;;;9.88;8.05;;;;;;;20.34;79.15;93349.56;5032254;28;20414;-40
2022/07/06 01:17:15;;;;;;;11.50;8.45;;;;;;;20.29;79.20;93353.47;5032275;28;20025;-40
2022/07/06 01:19:41;;;;;;;12.68;8.25;;;;;;;20.09;79.98;93366.34;5030429;28;20501;-40
2022/07/06 01:22:06;;;;;;;8.32;7.40;;;;;;;20.00;81.29;93369.28;5031413;28;20022;-41
2022/07/06 01:24:35;;;;;;;11.65;8.95;;;;;;;19.81;81.66;93344.34;5031172;28;20030;-41
2022/07/06 01:27:00;;;;;;;11.05;8.60;;;;;;;19.83;82.34;93380.88;5031758;28;20041;-40
2022/07/06 01:29:26;;;;;;;13.02;9.45;;;;;;;19.83;82.51;93389.28;5031375;28;20053;-41
2022/07/06 01:31:51;;;;;;;13.23;8.23;;;;;;;19.94;81.88;93378.06;5030612;28;20040;-41
2022/07/06 01:34:17;;;;;;;10.43;8.82;;;;;;;19.96;80.82;93375.38;5031478;28;20029;-40
2022/07/06 01:36:43;;;;;;;11.30;7.95;;;;;;;20.02;79.65;93375.72;5031846;28;20414;-40
2022/07/06 01:39:09;;;;;;;7.53;6.78;;;;;;;20.06;78.12;93369.63;5031218;28;20441;-40
2022/07/06 01:41:35;;;;;;;11.07;8.68;;;;;;;20.03;77.52;93373.66;5031383;28;20033;-41
2022/07/06 01:44:01;;;;;;;14.70;8.70;;;;;;;19.79;78.72;93381.38;5031731;28;20167;-42
2022/07/06 01:46:26;;;;;;;8.77;7.88;;;;;;;19.76;78.80;93390.28;5031517;28;20036;-41
2022/07/06 01:48:52;;;;;;;11.82;9.13;;;;;;;19.74;78.72;93387.34;5030323;28;20029;-42
2022/07/06 01:51:17;;;;;;;10.27;7.95;;;;;;;19.64;79.13;93379.81;5031617;28;20496;-41
2022/07/06 01:53:43;;;;;;;11.23;8.05;;;;;;;19.30;80.69;93360.94;5031272;28;20095;-41
2022/07/06 01:56:09;;;;;;;14.05;9.00;;;;;;;19.05;82.66;93390.84;5031189;28;20033;-41
2022/07/06 01:58:35;;;;;;;14.05;10.68;;;;;;;18.98;83.07;93394.59;5031132;28;20065;-43
2022/07/06 02:01:05;;;;;;;11.38;10.15;;;;;;;19.03;84.25;93397.06;5031537;28;20025;-42
2022/07/06 02:03:30;;;;;;;10.88;9.65;;;;;;;19.11;83.40;93394.75;5029686;28;20434;-41
2022/07/06 02:05:55;;;;;;;11.45;9.95;;;;;;;19.15;83.04;93392.19;5031195;28;20028;-41
2022/07/06 02:08:21;;;;;;;14.68;9.60;;;;;;;19.22;82.73;93394.03;5031225;28;20033;-41
2022/07/06 02:10:46;;;;;;;11.38;9.13;;;;;;;19.30;82.27;93400.13;5030892;28;20021;-41
2022/07/06 02:13:12;;;;;;;16.70;9.68;;;;;;;19.11;83.65;93405.94;5030718;28;20033;-42
2022/07/06 02:15:37;;;;;;;15.40;11.27;;;;;;;18.89;84.77;93398.97;5030987;28;20034;-42
2022/07/06 02:18:03;;;;;;;11.90;10.38;;;;;;;18.85;85.32;93407.09;5030752;28;20556;-42
2022/07/06 02:20:28;;;;;;;13.18;10.50;;;;;;;18.88;85.45;93417.09;5031063;28;20033;-42
2022/07/06 02:22:53;;;;;;;13.18;11.02;;;;;;;18.94;84.94;93411.88;5030783;28;20477;-41
2022/07/06 02:25:19;;;;;;;11.85;10.32;;;;;;;19.09;84.30;93417.00;5030731;28;20036;-41
2022/07/06 02:27:44;;;;;;;15.52;10.40;;;;;;;19.22;84.42;93424.09;5030714;28;20029;-41
2022/07/06 02:30:10;;;;;;;10.98;9.32;;;;;;;19.33;83.53;93420.56;5030732;28;20447;-44
2022/07/06 02:32:36;;;;;;;11.48;9.85;;;;;;;19.17;82.99;93422.38;5030809;28;20454;-44
2022/07/06 02:35:01;;;;;;;14.82;10.27;;;;;;;19.06;83.67;93432.22;5030680;28;20564;-44
2022/07/06 02:37:26;;;;;;;13.73;10.27;;;;;;;19.18;83.38;93429.44;5030554;28;20038;-45
2022/07/06 02:39:52;;;;;;;11.95;10.50;;;;;;;19.03;83.85;93413.84;5029606;28;20025;-40
2022/07/06 02:42:17;;;;;;;12.13;9.80;;;;;;;19.20;83.73;93423.97;5029855;28;20068;-40
2022/07/06 02:44:43;;;;;;;11.60;10.40;;;;;;;19.33;82.89;93420.56;5030329;28;20041;-40
2022/07/06 02:47:08;;;;;;;12.95;10.20;;;;;;;19.22;84.03;93404.50;5030436;28;20083;-40
2022/07/06 02:49:34;;;;;;;11.23;9.77;;;;;;;19.46;83.37;93417.94;5030444;28;20033;-40
2022/07/06 02:51:59;;;;;;;13.05;10.45;;;;;;;19.44;82.46;93417.81;5030223;28;20120;-40
2022/07/06 02:54:25;;;;;;;10.27;9.15;;;;;;;19.46;82.62;93417.19;5030369;28;20037;-40
2022/07/06 02:56:52;;;;;;;13.13;10.18;;;;;;;19.64;81.28;93424.63;5030121;28;20687;-40
2022/07/06 02:59:19;;;;;;;11.80;9.40;;;;;;;19.63;81.11;93419.63;5030352;28;20029;-40
2022/07/06 03:01:45;;;;;;;17.90;9.98;;;;;;;19.54;80.03;93415.63;5030408;28;20036;-39
2022/07/06 03:04:10;;;;;;;10.88;9.43;;;;;;;19.44;81.14;93434.63;5030016;28;20061;-40
2022/07/06 03:06:35;;;;;;;11.43;10.30;;;;;;;19.40;81.34;93428.78;5030175;28;20026;-40
2022/07/06 03:09:01;;;;;;;12.00;10.10;;;;;;;19.32;81.89;93430.28;5029322;28;20414;-39
2022/07/06 03:11:27;;;;;;;15.55;10.00;;;;;;;19.31;82.29;93428.84;5029774;28;20029;-40
2022/07/06 03:13:52;;;;;;;18.02;10.63;;;;;;;19.29;81.98;93437.13;5029951;28;20037;-39
2022/07/06 03:16:18;;;;;;;14.70;12.00;;;;;;;19.26;82.07;93436.25;5030069;28;20391;-40
2022/07/06 03:18:43;;;;;;;13.73;11.23;;;;;;;19.28;82.26;93442.00;5029957;28;20102;-41
2022/07/06 03:21:08;;;;;;;15.52;11.55;;;;;;;19.15;83.26;93442.56;5029895;28;20025;-41
2022/07/06 03:23:34;;;;;;;15.32;12.10;;;;;;;19.02;84.70;93437.56;5028944;28;20033;-41
2022/07/06 03:26:00;;;;;;;15.73;12.18;;;;;;;19.05;84.50;93441.94;5029657;28;20045;-41
2022/07/06 03:28:25;;;;;;;15.52;11.88;;;;;;;19.05;84.72;93444.75;5029449;28;20777;-41
2022/07/06 03:30:51;;;;;;;16.02;12.95;;;;;;;19.16;84.89;93449.66;5029737;28;20057;-41
2022/07/06 03:33:16;;;;;;;18.13;13.10;;;;;;;19.26;84.70;93447.47;5029696;28;20510;-41
2022/07/06 03:35:42;;;;;;;17.23;14.20;;;;;;;19.36;83.73;93442.50;5029199;28;20410;-41
2022/07/06 03:38:08;;;;;;;19.35;13.15;;;;;;;19.49;83.29;93449.59;5029662;28;20028;-40
2022/07/06 03:40:33;;;;;;;19.33;14.05;;;;;;;19.35;83.01;93424.25;5029320;28;20165;-41
2022/07/06 03:42:59;;;;;;;15.20;12.80;;;;;;;19.52;82.52;93449.09;5028625;28;20060;-41
2022/07/06 03:45:25;;;;;;;14.88;12.23;;;;;;;19.58;82.54;93457.13;5028454;28;20082;-42
2022/07/06 03:47:50;;;;;;;15.02;12.77;;;;;;;19.65;82.27;93456.91;5029117;28;20026;-42
2022/07/06 04:02:12;;;;;;;19.80;13.98;;;;;;;20.28;78.57;93429.81;5101169;27;20629;-45
2022/07/06 04:04:38;;;;;;;18.20;13.50;;;;;;;20.17;78.78;93422.88;5092857;28;20040;-41
2022/07/06 04:07:03;;;;;;;16.38;12.75;;;;;;;20.26;78.60;93426.88;5084843;28;20028;-42
2022/07/06 04:09:29;;;;;;;19.42;14.25;;;;;;;20.17;77.81;93424.94;5085690;28;20552;-41
2022/07/06 04:11:54;;;;;;;15.75;13.68;;;;;;;20.02;80.04;93425.44;5085555;28;20786;-41
2022/07/06 04:14:20;;;;;;;14.45;12.95;;;;;;;20.01;80.98;93413.50;5085263;28;20103;-42
2022/07/06 04:16:45;;;;;;;14.13;12.35;;;;;;;20.05;79.01;93424.22;5085538;28;20081;-41
2022/07/06 04:19:11;;;;;;;17.15;13.35;;;;;;;20.13;78.57;93424.69;5085290;28;20028;-41
2022/07/06 04:21:36;;;;;;;14.27;12.73;;;;;;;20.12;79.42;93418.34;5085433;28;20040;-41
2022/07/06 04:24:02;;;;;;;23.25;14.35;;;;;;;20.21;79.94;93430.78;5085525;28;20028;-42
2022/07/06 04:26:27;;;;;;;16.25;14.20;;;;;;;20.04;81.41;93437.50;5085129;28;20505;-42
2022/07/06 04:28:53;;;;;;;15.63;13.57;;;;;;;20.06;81.97;93440.44;5067183;28;20027;-42
2022/07/06 04:31:18;;;;;;;16.75;13.50;;;;;;;20.11;81.48;93430.19;5084951;28;20108;-42
2022/07/06 04:33:44;;;;;;;16.17;13.75;;;;;;;20.06;81.50;93432.03;5085235;28;20032;-43
2022/07/06 04:36:10;;;;;;;16.50;13.57;;;;;;;20.04;81.53;93429.09;5085073;28;20614;-41
2022/07/06 04:38:35;;;;;;;15.60;12.93;;;;;;;20.16;80.90;93435.41;5085344;28;20099;-40
2022/07/06 04:41:01;;;;;;;21.75;13.88;;;;;;;20.27;80.28;93433.97;5085225;28;20024;-41
2022/07/06 04:43:26;;;;;;;14.45;12.90;;;;;;;20.21;80.60;93436.41;5085526;28;20467;-41
2022/07/06 04:45:52;;;;;;;15.80;13.38;;;;;;;20.29;80.05;93439.69;5085094;28;20390;-41
2022/07/06 04:48:17;;;;;;;14.48;12.95;;;;;;;20.26;79.74;93444.44;5085382;28;20059;-41
2022/07/06 04:50:43;;;;;;;13.75;12.25;;;;;;;20.23;79.62;93442.88;5085615;28;20381;-41
2022/07/06 04:53:08;;;;;;;17.40;11.98;;;;;;;20.18;79.46;93451.63;5085233;28;20539;-41
2022/07/06 04:55:34;;;;;;;14.25;12.18;;;;;;;20.11;80.20;93453.34;5084751;28;20020;-41
2022/07/06 04:57:59;;;;;;;13.35;11.95;;;;;;;20.09;80.34;93461.66;5085121;28;20077;-41
2022/07/06 05:00:25;;;;;;;14.55;12.38;;;;;;;20.11;80.06;93453.34;5085001;28;20531;-41
2022/07/06 05:02:51;;;;;;;15.25;13.30;;;;;;;20.14;79.83;93454.19;5073567;28;20028;-42
2022/07/06 05:05:16;;;;;;;13.57;12.15;;;;;;;20.00;80.36;93444.94;5071639;28;20504;-40
2022/07/06 05:07:42;;;;;;;17.67;12.60;;;;;;;19.87;80.86;93454.72;5071266;28;20021;-41
2022/07/06 05:10:09;;;;;;;13.52;12.13;;;;;;;19.85;81.25;93462.25;5070938;28;20580;-41
2022/07/06 05:12:35;;;;;;;15.55;11.45;;;;;;;19.93;80.65;93469.06;5070036;28;20028;-42
2022/07/06 05:15:00;;;;;;;16.85;12.13;;;;;;;19.84;81.46;93472.03;5071128;28;20039;-41
2022/07/06 05:17:26;;;;;;;20.50;18.70;;;;;;;20.06;79.94;93478.94;5071415;28;20081;-41
2022/07/06 05:19:52;;;;;;;17.27;11.68;;;;;;;20.12;79.81;93468.09;5071889;28;20437;-41
2022/07/06 05:22:17;;;;;;;13.55;10.20;;;;;;;20.21;79.08;93465.19;5070901;28;20421;-41
2022/07/06 05:24:43;;;;;;;14.27;10.73;;;;;;;20.01;78.96;93457.63;5071366;28;20029;-42
2022/07/06 05:27:09;;;;;;;11.93;10.00;;;;;;;20.20;80.43;93479.78;5077452;28;20056;-42
2022/07/06 05:29:34;;;;;;;12.73;9.73;;;;;;;20.31;77.59;93485.38;5091104;28;20102;-41
2022/07/06 05:32:00;;;;;;;13.25;11.45;;;;;;;20.26;77.97;93474.56;5081596;28;20028;-40
2022/07/06 05:34:25;;;;;;;13.25;9.80;;;;;;;20.15;78.37;93476.00;5070706;28;20024;-40
2022/07/06 05:51:14;;;;;;;10.98;9.10;;;;;;;20.85;75.42;93498.31;5108509;28;20076;-41
2022/07/06 05:53:40;;;;;;;15.25;10.00;;;;;;;20.79;76.15;93498.69;5121226;28;20027;-44
2022/07/06 05:56:05;;;;;;;13.52;9.80;;;;;;;20.64;76.66;93501.31;5126846;28;20514;-43
2022/07/06 05:58:31;;;;;;;12.52;10.43;;;;;;;20.57;77.57;93505.84;5126518;28;20563;-42
2022/07/06 06:00:56;;;;;;;14.18;10.00;;;;;;;20.49;77.85;93499.75;5121421;27;20067;-44
2022/07/06 06:03:22;;;;;;;15.20;9.65;;;;;;;20.42;78.22;93500.75;5115785;28;20027;-43
2022/07/06 06:05:48;;;;;;;12.27;9.95;;;;;;;20.28;77.94;93503.44;5106156;28;20024;-41
2022/07/06 06:08:13;;;;;;;12.68;9.98;;;;;;;20.29;78.53;93499.28;5119945;28;20110;-39
2022/07/06 06:10:39;;;;;;;13.98;10.63;;;;;;;20.33;79.63;93496.75;5126128;28;20476;-40
2022/07/06 06:13:04;;;;;;;11.18;9.82;;;;;;;20.48;79.96;93495.50;5126445;28;20061;-41
2022/07/06 06:15:30;;;;;;;12.10;10.00;;;;;;;20.59;77.26;93502.41;5126309;28;20078;-43
2022/07/06 06:17:55;;;;;;;11.75;8.02;;;;;;;20.58;77.23;93503.75;5126273;28;20057;-43
2022/07/06 06:20:21;;;;;;;9.40;8.00;;;;;;;20.64;75.68;93499.22;5126550;28;20034;-41
2022/07/06 06:22:47;;;;;;;10.02;6.85;;;;;;;20.78;75.30;93508.47;5126116;28;20031;-45
2022/07/06 06:25:14;;;;;;;8.10;6.68;;;;;;;20.79;73.57;93504.28;5126354;28;20054;-41
2022/07/06 06:27:39;;;;;;;7.65;6.40;;;;;;;20.68;75.15;93496.63;5126065;28;20020;-43
2022/07/06 06:30:05;;;;;;;9.60;7.22;;;;;;;20.35;74.73;93490.50;5125057;28;20032;-43
2022/07/06 06:32:31;;;;;;;11.20;7.55;;;;;;;20.37;74.47;93505.38;5104185;28;20032;-41
2022/07/06 06:34:56;;;;;;;8.18;7.35;;;;;;;20.39;76.40;93505.50;5117353;28;20032;-43
2022/07/06 06:37:22;;;;;;;8.85;6.90;;;;;;;20.32;75.82;93500.88;5118975;27;20026;-43
2022/07/06 06:39:47;;;;;;;9.60;8.57;;;;;;;20.43;76.41;93499.38;5121942;28;20118;-45
2022/07/06 06:42:12;;;;;;;11.02;8.60;;;;;;;20.29;75.53;93496.47;5123227;28;20038;-44
2022/07/06 06:44:38;;;;;;;10.10;8.93;;;;;;;20.30;75.25;93500.03;5121496;28;20109;-43
2022/07/06 06:47:03;;;;;;;9.77;8.73;;;;;;;20.32;76.60;93494.53;5108095;28;20059;-40
2022/07/06 06:49:29;;;;;;;11.02;8.82;;;;;;;20.41;78.30;93499.28;5094579;28;20100;-42
2022/07/06 06:51:54;;;;;;;11.93;8.35;;;;;;;20.57;75.18;93491.06;5101328;28;20023;-43
2022/07/06 06:54:20;;;;;;;13.45;9.23;;;;;;;20.66;75.51;93488.09;5102177;28;20065;-44
2022/07/06 06:56:45;;;;;;;11.65;9.00;;;;;;;20.63;74.81;93497.03;5107820;28;20685;-44
2022/07/06 06:59:11;;;;;;;10.45;8.60;;;;;;;20.39;75.30;93499.91;5109833;28;20050;-43
2022/07/06 07:01:36;;;;;;;14.07;9.95;;;;;;;20.36;75.39;93494.75;5107544;28;20519;-44
2022/07/06 07:04:01;;;;;;;11.43;9.65;;;;;;;20.31;77.57;93490.28;5098404;28;20523;-42
2022/07/06 07:06:27;;;;;;;11.60;9.02;;;;;;;20.50;77.65;93494.88;5093174;28;20111;-42
2022/07/06 07:08:52;;;;;;;11.43;8.48;;;;;;;20.65;75.47;93494.34;5091217;28;20039;-41
2022/07/06 07:11:18;;;;;;;8.93;7.68;;;;;;;20.63;74.48;93491.41;5091333;28;20035;-41
2022/07/06 07:13:43;;;;;;;10.00;7.13;;;;;;;20.65;74.60;93489.47;5096451;28;20054;-41
2022/07/06 07:16:09;;;;;;;10.55;8.25;;;;;;;20.67;75.74;93491.66;5092010;28;20471;-41
2022/07/06 07:18:34;;;;;;;10.65;7.57;;;;;;;20.73;74.09;93497.59;5089583;28;20111;-43
2022/07/06 07:21:00;;;;;;;11.35;8.30;;;;;;;20.74;72.90;93502.63;5088963;28;20073;-40
2022/07/06 07:23:25;;;;;;;16.08;7.57;;;;;;;20.98;72.60;93494.84;5090369;28;20052;-41
2022/07/06 07:25:50;;;;;;;10.35;7.75;;;;;;;21.03;74.16;93497.28;5071922;28;20040;-41
2022/07/06 07:28:16;;;;;;;9.43;8.27;;;;;;;21.24;72.32;93504.75;5089922;28;20093;-41
2022/07/06 07:30:41;;;;;;;9.82;8.00;;;;;;;21.36;72.59;93501.88;5089129;28;20040;-41
2022/07/06 07:33:07;;;;;;;10.00;8.93;;;;;;;21.38;74.11;93496.38;5088812;28;20056;-42
2022/07/06 07:35:32;;;;;;;9.10;8.15;;;;;;;21.50;70.98;93497.78;5085848;28;20328;-42
2022/07/06 07:37:58;;;;;;;11.00;8.07;;;;;;;21.74;68.74;93499.06;5085343;28;20110;-42
2022/07/06 07:40:23;;;;;;;10.38;8.32;;;;;;;22.03;68.95;93497.78;5085455;28;20267;-42
2022/07/06 07:42:49;;;;;;;10.73;7.07;;;;;;;22.28;67.27;93495.63;5092148;28;20476;-41
2022/07/06 07:45:15;;;;;;;9.07;7.75;;;;;;;22.30;66.54;93497.81;5105241;28;20020;-43
2022/07/06 07:47:41;;;;;;;11.63;8.63;;;;;;;22.38;67.89;93498.94;5106613;28;20063;-42
2022/07/06 07:50:07;;;;;;;9.13;8.23;;;;;;;22.52;65.89;93496.84;5109556;28;20027;-42
2022/07/06 07:52:32;;;;;;;17.05;8.10;;;;;;;22.79;67.23;93486.91;5110723;28;20051;-41
2022/07/06 07:54:58;;;;;;;14.63;7.40;;;;;;;23.50;64.74;93491.09;5110966;28;20058;-41
2022/07/06 07:57:23;;;;;;;9.57;7.45;;;;;;;24.41;62.54;93462.81;5111110;28;20058;-43
2022/07/06 07:59:49;;;;;;;8.82;7.55;;;;;;;25.53;58.35;93486.53;5109732;28;20053;-42
2022/07/06 08:02:14;;;;;;;12.73;7.88;;;;;;;26.28;54.50;93484.47;5110755;28;20027;-42
2022/07/06 08:04:40;;;;;;;9.70;7.38;;;;;;;26.47;54.87;93471.69;5110738;28;20027;-42
2022/07/06 08:07:06;;;;;;;10.93;8.48;;;;;;;26.82;53.76;93479.31;5110636;28;20464;-43
2022/07/06 08:09:31;;;;;;;9.32;7.93;;;;;;;26.63;54.17;93480.75;5110984;28;20812;-44
2022/07/06 08:11:58;;;;;;;9.70;8.70;;;;;;;26.23;54.55;93485.69;5110715;28;20031;-42
2022/07/06 08:14:23;;;;;;;9.77;8.77;;;;;;;25.58;56.96;93492.38;5109151;28;20092;-43
2022/07/06 08:16:49;;;;;;;9.05;8.13;;;;;;;25.07;57.96;93484.69;5110369;28;20028;-41
2022/07/06 08:19:15;;;;;;;10.05;8.88;;;;;;;24.79;58.66;93492.72;5110131;28;20031;-42
2022/07/06 08:21:41;;;;;;;13.82;9.95;;;;;;;24.62;60.24;93490.53;5110460;28;20032;-43
2022/07/06 08:24:07;;;;;;;9.77;8.77;;;;;;;25.31;59.96;93482.84;5110078;28;20173;-43
2022/07/06 08:26:33;;;;;;;8.82;8.02;;;;;;;26.44;56.56;93480.78;5110061;28;20530;-43
2022/07/06 08:28:59;;;;;;;8.52;7.72;;;;;;;26.90;53.78;93463.31;5110038;28;20028;-41
2022/07/06 08:31:25;;;;;;;10.02;8.75;;;;;;;28.06;51.64;93468.44;5110212;28;20329;-41
2022/07/06 08:33:53;;;;;;;9.55;7.05;;;;;;;28.84;46.09;93472.03;5110319;28;20040;-41
2022/07/06 08:36:19;;;;;;;10.55;6.50;;;;;;;29.36;47.91;93464.88;5109923;28;20060;-40
2022/07/06 08:38:44;;;;;;;5.60;5.07;;;;;;;29.85;45.44;93475.28;5109829;28;20457;-41
2022/07/06 08:41:10;;;;;;;12.23;5.57;;;;;;;30.40;43.47;93474.38;5110024;28;20032;-40
2022/07/06 08:43:36;;;;;;;6.43;4.43;;;;;;;30.69;41.12;93473.53;5109912;28;20034;-40
2022/07/06 08:46:01;;;;;;;8.65;5.07;;;;;;;30.76;40.75;93471.50;5109358;28;20423;-40
2022/07/06 08:48:27;;;;;;;5.25;4.70;;;;;;;30.77;41.68;93472.97;5109571;28;20540;-41
2022/07/06 08:50:54;;;;;;;7.65;6.20;;;;;;;31.18;41.65;93478.75;5091478;28;20034;-40
2022/07/06 08:53:20;;;;;;;5.68;4.70;;;;;;;31.43;40.49;93472.09;5109555;28;20020;-40
2022/07/06 08:55:46;;;;;;;5.85;5.25;;;;;;;31.81;41.58;93474.84;5109655;28;20401;-41
2022/07/06 08:58:13;;;;;;;5.20;4.78;;;;;;;32.25;39.18;93468.34;5109732;28;20106;-42
2022/07/06 09:00:39;;;;;;;5.63;5.10;;;;;;;32.68;39.08;93478.91;5091279;28;20034;-41
2022/07/06 09:03:05;;;;;;;5.75;4.80;;;;;;;32.84;37.74;93473.38;5091565;28;20039;-40
2022/07/06 09:05:32;;;;;;;5.57;4.85;;;;;;;32.87;37.78;93472.69;5091237;28;20031;-42
2022/07/06 09:07:58;;;;;;;5.65;5.15;;;;;;;32.86;37.25;93471.25;5091354;28;20051;-41
2022/07/06 09:10:24;;;;;;;6.85;5.55;;;;;;;32.95;37.90;93482.78;5091320;28;20526;-41
2022/07/06 09:12:50;;;;;;;7.05;4.63;;;;;;;32.70;36.67;93476.78;5109063;28;20031;-41
2022/07/06 09:15:15;;;;;;;7.90;5.60;;;;;;;31.90;37.65;93472.81;5109124;28;20023;-40
2022/07/06 09:17:42;;;;;;;6.03;5.32;;;;;;;30.89;41.54;93476.06;5109372;28;20032;-42
2022/07/06 09:20:12;;;;;;;6.75;6.03;;;;;;;30.60;41.84;93474.78;5109426;28;20031;-40
2022/07/06 09:22:38;;;;;;;6.57;5.60;;;;;;;29.99;43.87;93447.16;5109302;28;20032;-41
2022/07/06 09:25:08;;;;;;;7.10;6.00;;;;;;;29.52;45.89;93476.63;5109640;28;20051;-41
2022/07/06 09:27:49;;;;;;;7.03;6.32;;;;;;;29.20;45.04;93475.84;5090975;28;20028;-41
2022/07/06 09:30:15;;;;;;;6.82;6.13;;;;;;;28.82;46.61;93483.38;5109175;28;20058;-41
2022/07/06 09:32:46;;;;;;;5.47;4.97;;;;;;;28.25;45.90;93473.25;5108970;28;20146;-40
2022/07/06 09:35:23;;;;;;;8.13;5.97;;;;;;;27.51;49.34;93485.16;5109398;28;20046;-42
2022/07/06 09:37:59;;;;;;;8.85;6.68;;;;;;;27.09;49.99;93478.09;5108791;28;20622;-42
2022/07/06 09:40:25;;;;;;;9.30;6.30;;;;;;;26.78;50.76;93484.84;5108991;28;20027;-43
2022/07/06 09:42:50;;;;;;;10.40;7.13;;;;;;;26.52;53.40;93478.22;5108902;28;20119;-42
2022/07/06 09:45:21;;;;;;;9.80;7.05;;;;;;;26.18;54.27;93472.06;5108269;28;20031;-42
2022/07/06 09:47:49;;;;;;;7.40;5.75;;;;;;;25.77;54.27;93463.41;5108700;28;20109;-42
2022/07/06 09:50:17;;;;;;;6.70;5.07;;;;;;;25.47;53.24;93466.53;5109081;28;20038;-41
2022/07/06 09:52:55;;;;;;;4.97;4.38;;;;;;;25.23;55.46;93479.66;5108986;28;20088;-41
2022/07/06 09:55:21;;;;;;;5.78;4.75;;;;;;;24.95;58.77;93469.34;5109157;28;20074;-41
2022/07/06 09:57:55;;;;;;;5.30;4.80;;;;;;;24.92;59.24;93481.91;5108976;28;20031;-40
2022/07/06 10:00:20;;;;;;;7.15;5.53;;;;;;;24.76;59.68;93477.03;5108944;28;20566;-41
2022/07/06 10:02:47;;;;;;;7.13;5.90;;;;;;;24.69;60.42;93483.78;5108587;28;20103;-41
2022/07/06 10:05:15;;;;;;;6.38;5.50;;;;;;;24.56;60.29;93481.78;5091059;28;20031;-41
2022/07/06 10:07:40;;;;;;;7.43;6.07;;;;;;;24.40;62.24;93474.75;5090593;28;20063;-41
2022/07/06 10:10:06;;;;;;;6.53;5.13;;;;;;;24.19;60.60;93463.94;5090480;28;20034;-41
2022/07/06 10:12:32;;;;;;;7.40;6.05;;;;;;;24.12;60.86;93467.88;5090798;28;20095;-40
2022/07/06 10:14:57;;;;;;;6.07;5.13;;;;;;;23.83;59.75;93460.19;5090363;28;20042;-41
2022/07/06 10:17:23;;;;;;;8.60;5.65;;;;;;;23.88;60.77;93467.47;5090665;28;20031;-42
2022/07/06 10:19:50;;;;;;;8.00;6.15;;;;;;;23.74;63.13;93464.75;5108643;28;20027;-40
2022/07/06 10:22:18;;;;;;;13.93;6.70;;;;;;;23.73;63.24;93468.22;5108570;28;20053;-41
2022/07/06 10:24:43;;;;;;;8.13;5.78;;;;;;;23.72;63.09;93473.13;5112273;28;20042;-41
2022/07/06 10:27:10;;;;;;;8.38;5.80;;;;;;;23.55;63.79;93470.19;5112748;28;20023;-41
2022/07/06 10:29:36;;;;;;;7.22;6.10;;;;;;;23.42;65.02;93477.34;5112328;28;20085;-41
2022/07/06 10:32:02;;;;;;;8.02;6.18;;;;;;;23.30;65.58;93457.03;5112268;28;20027;-41
2022/07/06 10:34:28;;;;;;;7.07;6.38;;;;;;;23.33;66.49;93475.50;5093052;28;20067;-41
2022/07/06 10:36:54;;;;;;;7.47;6.63;;;;;;;23.10;67.19;93467.34;5111778;28;20397;-41
2022/07/06 10:42:40;;;;;;;6.80;6.03;;;;;;;22.86;69.54;93460.53;5112512;28;20085;-41
2022/07/06 10:45:06;;;;;;;8.33;6.40;;;;;;;22.99;69.60;93463.31;5111696;28;20035;-41
2022/07/06 10:47:32;;;;;;;7.43;5.75;;;;;;;23.04;68.97;93461.41;5111952;28;20083;-41
2022/07/06 10:50:03;;;;;;;9.80;6.80;;;;;;;22.90;69.06;93438.94;5111990;28;20069;-41
2022/07/06 10:52:48;;;;;;;11.38;6.90;;;;;;;22.93;68.78;93474.28;5112138;28;20031;-41
2022/07/06 10:55:38;;;;;;;10.25;7.82;;;;;;;23.07;70.40;93479.84;5111844;28;20039;-41
2022/07/06 10:58:05;;;;;;;8.10;6.60;;;;;;;23.21;69.85;93466.47;5111809;28;20458;-40
2022/07/06 11:00:54;;;;;;;7.45;6.55;;;;;;;23.25;68.42;93458.94;5111862;28;20058;-41
2022/07/06 11:03:44;;;;;;;8.10;6.88;;;;;;;23.49;69.56;93461.44;5111998;28;20209;-41
2022/07/06 11:06:17;;;;;;;7.47;5.95;;;;;;;23.41;68.15;93444.91;5112001;28;20020;-41
2022/07/06 11:08:52;;;;;;;6.78;6.07;;;;;;;23.53;70.29;93461.63;5111848;28;20514;-41
2022/07/06 11:11:33;;;;;;;10.40;7.25;;;;;;;23.68;70.21;93461.66;5111908;28;20031;-41
2022/07/06 11:14:06;;;;;;;7.53;6.72;;;;;;;23.73;70.75;93417.47;5111813;28;20108;-41
2022/07/06 11:16:52;;;;;;;9.73;5.65;;;;;;;24.19;67.54;93450.53;5111781;28;20434;-41
2022/07/06 11:19:19;;;;;;;10.30;7.53;;;;;;;24.18;66.51;93454.03;5093781;28;20036;-41
2022/07/06 11:21:51;;;;;;;8.40;6.60;;;;;;;24.07;67.46;93445.13;5111722;28;20505;-41
2022/07/06 11:24:19;;;;;;;7.40;6.65;;;;;;;24.02;64.99;93454.72;5111322;28;20106;-41
2022/07/06 11:26:46;;;;;;;7.72;7.00;;;;;;;23.77;64.31;93457.84;5111157;28;20492;-41
2022/07/06 11:29:12;;;;;;;10.05;7.05;;;;;;;23.66;66.31;93458.75;5111278;28;20462;-42
2022/07/06 11:31:40;;;;;;;9.95;7.88;;;;;;;23.91;68.07;93458.47;5110964;28;20860;-41
2022/07/06 11:34:07;;;;;;;7.72;6.65;;;;;;;23.98;66.63;93465.84;5110955;28;20028;-42
2022/07/06 11:36:33;;;;;;;7.47;6.68;;;;;;;23.91;65.10;93458.47;5111355;28;20410;-41
2022/07/06 11:38:59;;;;;;;8.15;6.80;;;;;;;23.84;65.21;93461.66;5110895;28;20024;-42
2022/07/06 11:41:25;;;;;;;12.07;7.97;;;;;;;23.73;66.55;93457.66;5111236;28;20038;-41
2022/07/06 11:43:51;;;;;;;11.80;8.30;;;;;;;23.66;67.41;93463.66;5110840;28;20037;-41
2022/07/06 11:46:25;;;;;;;13.85;9.18;;;;;;;23.54;67.11;93463.09;5109926;28;20072;-42
2022/07/06 11:48:57;;;;;;;9.25;8.07;;;;;;;23.50;68.37;93468.56;5090317;28;20524;-41
2022/07/06 11:51:24;;;;;;;10.35;7.15;;;;;;;23.52;67.90;93460.91;5090488;28;20102;-41
2022/07/06 11:53:53;;;;;;;9.32;8.30;;;;;;;23.48;67.31;93466.34;5090308;28;20028;-40